sensor_id;sensor_type;location;lat;lon;timestamp;temperature;humidity
46816;DHT22;32787;53.316;8.670;2022-10-16T00:00:56;13.50;86.80
46816;DHT22;32787;53.316;8.670;2022-10-16T00:03:22;13.50;86.50
46816;DHT22;32787;53.316;8.670;2022-10-16T00:05:47;13.40;87.00
46816;DHT22;32787;53.316;8.670;2022-10-16T00:08:13;13.30;87.30
46816;DHT22;32787;53.316;8.670;2022-10-16T00:10:39;13.50;86.20
46816;DHT22;32787;53.316;8.670;2022-10-16T00:13:05;13.60;85.70
46816;DHT22;32787;53.316;8.670;2022-10-16T00:15:34;13.60;85.70
46816;DHT22;32787;53.316;8.670;2022-10-16T00:18:02;13.60;85.70
46816;DHT22;32787;53.316;8.670;2022-10-16T00:20:27;13.40;85.60
46816;DHT22;32787;53.316;8.670;2022-10-16T00:22:53;13.40;85.90
46816;DHT22;32787;53.316;8.670;2022-10-16T00:25:19;13.40;85.80
46816;DHT22;32787;53.316;8.670;2022-10-16T00:27:44;13.40;85.00
46816;DHT22;32787;53.316;8.670;2022-10-16T00:30:10;13.30;85.40
46816;DHT22;32787;53.316;8.670;2022-10-16T00:32:36;13.40;85.40
46816;DHT22;32787;53.316;8.670;2022-10-16T00:35:01;13.30;85.80
46816;DHT22;32787;53.316;8.670;2022-10-16T00:37:29;13.30;86.00
46816;DHT22;32787;53.316;8.670;2022-10-16T00:39:54;13.10;86.50
46816;DHT22;32787;53.316;8.670;2022-10-16T00:42:20;13.20;86.00
46816;DHT22;32787;53.316;8.670;2022-10-16T00:44:56;13.30;85.40
46816;DHT22;32787;53.316;8.670;2022-10-16T00:52:46;12.80;86.80
46816;DHT22;32787;53.316;8.670;2022-10-16T00:55:12;12.90;86.70
46816;DHT22;32787;53.316;8.670;2022-10-16T00:57:39;12.90;86.70
46816;DHT22;32787;53.316;8.670;2022-10-16T01:00:07;13.10;86.20
46816;DHT22;32787;53.316;8.670;2022-10-16T01:02:33;12.90;86.40
46816;DHT22;32787;53.316;8.670;2022-10-16T01:04:59;13.00;86.60
46816;DHT22;32787;53.316;8.670;2022-10-16T01:10:30;13.00;86.30
46816;DHT22;32787;53.316;8.670;2022-10-16T01:13:09;13.00;86.10
46816;DHT22;32787;53.316;8.670;2022-10-16T01:15:44;12.90;86.10
46816;DHT22;32787;53.316;8.670;2022-10-16T01:18:52;12.90;86.20
46816;DHT22;32787;53.316;8.670;2022-10-16T01:21:31;12.90;85.90
46816;DHT22;32787;53.316;8.670;2022-10-16T01:29:13;12.90;86.00
46816;DHT22;32787;53.316;8.670;2022-10-16T01:31:45;12.90;86.00
46816;DHT22;32787;53.316;8.670;2022-10-16T01:34:19;12.80;86.40
46816;DHT22;32787;53.316;8.670;2022-10-16T01:36:51;12.80;86.30
46816;DHT22;32787;53.316;8.670;2022-10-16T01:39:25;12.90;85.40
46816;DHT22;32787;53.316;8.670;2022-10-16T01:41:58;12.80;86.20
46816;DHT22;32787;53.316;8.670;2022-10-16T01:44:29;12.60;86.50
46816;DHT22;32787;53.316;8.670;2022-10-16T01:46:57;12.50;87.30
46816;DHT22;32787;53.316;8.670;2022-10-16T01:49:24;12.80;86.60
46816;DHT22;32787;53.316;8.670;2022-10-16T01:51:55;12.70;86.40
46816;DHT22;32787;53.316;8.670;2022-10-16T01:54:21;12.90;85.80
46816;DHT22;32787;53.316;8.670;2022-10-16T01:56:50;12.80;86.30
46816;DHT22;32787;53.316;8.670;2022-10-16T01:59:20;12.50;86.90
46816;DHT22;32787;53.316;8.670;2022-10-16T02:01:56;12.60;87.50
46816;DHT22;32787;53.316;8.670;2022-10-16T02:04:28;12.60;87.10
46816;DHT22;32787;53.316;8.670;2022-10-16T02:06:54;12.50;87.30
46816;DHT22;32787;53.316;8.670;2022-10-16T02:09:21;12.50;87.40
46816;DHT22;32787;53.316;8.670;2022-10-16T02:11:46;12.50;87.30
46816;DHT22;32787;53.316;8.670;2022-10-16T02:14:14;12.40;87.80
46816;DHT22;32787;53.316;8.670;2022-10-16T02:16:45;12.50;87.60
46816;DHT22;32787;53.316;8.670;2022-10-16T02:19:13;12.60;87.60
46816;DHT22;32787;53.316;8.670;2022-10-16T02:21:42;12.80;86.40
46816;DHT22;32787;53.316;8.670;2022-10-16T02:24:33;12.60;87.00
46816;DHT22;32787;53.316;8.670;2022-10-16T02:29:39;12.60;87.30
46816;DHT22;32787;53.316;8.670;2022-10-16T02:32:07;12.50;87.30
46816;DHT22;32787;53.316;8.670;2022-10-16T02:34:35;12.40;87.90
46816;DHT22;32787;53.316;8.670;2022-10-16T02:37:02;12.50;87.60
46816;DHT22;32787;53.316;8.670;2022-10-16T02:39:29;12.60;87.70
46816;DHT22;32787;53.316;8.670;2022-10-16T02:41:55;12.50;87.50
46816;DHT22;32787;53.316;8.670;2022-10-16T02:44:21;12.40;87.50
46816;DHT22;32787;53.316;8.670;2022-10-16T02:46:47;12.30;88.00
46816;DHT22;32787;53.316;8.670;2022-10-16T02:49:12;12.50;87.40
46816;DHT22;32787;53.316;8.670;2022-10-16T02:51:38;12.50;87.40
46816;DHT22;32787;53.316;8.670;2022-10-16T02:54:03;12.60;86.70
46816;DHT22;32787;53.316;8.670;2022-10-16T02:56:29;12.40;87.10
46816;DHT22;32787;53.316;8.670;2022-10-16T02:58:56;12.40;87.50
46816;DHT22;32787;53.316;8.670;2022-10-16T03:01:22;12.30;87.50
46816;DHT22;32787;53.316;8.670;2022-10-16T03:03:48;12.60;86.30
46816;DHT22;32787;53.316;8.670;2022-10-16T03:06:13;12.60;86.70
46816;DHT22;32787;53.316;8.670;2022-10-16T03:08:39;12.60;86.60
46816;DHT22;32787;53.316;8.670;2022-10-16T03:11:04;12.70;86.10
46816;DHT22;32787;53.316;8.670;2022-10-16T03:13:30;12.60;86.40
46816;DHT22;32787;53.316;8.670;2022-10-16T03:15:56;12.60;86.60
46816;DHT22;32787;53.316;8.670;2022-10-16T03:18:21;12.50;86.90
46816;DHT22;32787;53.316;8.670;2022-10-16T03:20:47;12.50;86.70
46816;DHT22;32787;53.316;8.670;2022-10-16T03:23:12;12.50;86.60
46816;DHT22;32787;53.316;8.670;2022-10-16T03:25:38;12.40;86.90
46816;DHT22;32787;53.316;8.670;2022-10-16T03:28:03;12.60;87.20
46816;DHT22;32787;53.316;8.670;2022-10-16T03:30:29;12.70;86.20
46816;DHT22;32787;53.316;8.670;2022-10-16T03:32:55;12.70;85.90
46816;DHT22;32787;53.316;8.670;2022-10-16T03:35:22;12.80;85.40
46816;DHT22;32787;53.316;8.670;2022-10-16T03:37:48;12.70;85.80
46816;DHT22;32787;53.316;8.670;2022-10-16T03:40:15;12.70;85.80
46816;DHT22;32787;53.316;8.670;2022-10-16T03:42:42;12.50;86.60
46816;DHT22;32787;53.316;8.670;2022-10-16T03:45:08;12.50;86.40
46816;DHT22;32787;53.316;8.670;2022-10-16T03:47:33;12.60;86.60
46816;DHT22;32787;53.316;8.670;2022-10-16T03:50:00;12.70;86.40
46816;DHT22;32787;53.316;8.670;2022-10-16T03:52:25;12.50;86.40
46816;DHT22;32787;53.316;8.670;2022-10-16T03:54:51;12.60;86.50
46816;DHT22;32787;53.316;8.670;2022-10-16T03:57:17;12.70;86.40
46816;DHT22;32787;53.316;8.670;2022-10-16T03:59:42;12.80;86.00
46816;DHT22;32787;53.316;8.670;2022-10-16T04:02:08;12.80;85.80
46816;DHT22;32787;53.316;8.670;2022-10-16T04:04:34;12.90;85.60
46816;DHT22;32787;53.316;8.670;2022-10-16T04:07:00;12.90;86.10
46816;DHT22;32787;53.316;8.670;2022-10-16T04:09:26;12.90;86.00
46816;DHT22;32787;53.316;8.670;2022-10-16T04:11:51;12.90;85.60
46816;DHT22;32787;53.316;8.670;2022-10-16T04:14:17;12.90;86.00
46816;DHT22;32787;53.316;8.670;2022-10-16T04:16:42;12.90;86.30
46816;DHT22;32787;53.316;8.670;2022-10-16T04:19:09;13.00;85.80
46816;DHT22;32787;53.316;8.670;2022-10-16T04:21:35;12.90;85.90
46816;DHT22;32787;53.316;8.670;2022-10-16T04:24:00;12.90;86.00
46816;DHT22;32787;53.316;8.670;2022-10-16T04:26:26;13.00;85.90
46816;DHT22;32787;53.316;8.670;2022-10-16T04:28:51;13.00;85.70
46816;DHT22;32787;53.316;8.670;2022-10-16T04:31:17;13.10;86.00
46816;DHT22;32787;53.316;8.670;2022-10-16T04:33:43;13.10;85.80
46816;DHT22;32787;53.316;8.670;2022-10-16T04:36:09;13.10;86.30
46816;DHT22;32787;53.316;8.670;2022-10-16T04:38:34;13.10;86.10
46816;DHT22;32787;53.316;8.670;2022-10-16T04:41:03;13.10;86.30
46816;DHT22;32787;53.316;8.670;2022-10-16T04:43:29;13.20;86.20
46816;DHT22;32787;53.316;8.670;2022-10-16T04:45:54;13.30;85.80
46816;DHT22;32787;53.316;8.670;2022-10-16T04:48:21;13.20;85.60
46816;DHT22;32787;53.316;8.670;2022-10-16T04:50:47;13.30;85.90
46816;DHT22;32787;53.316;8.670;2022-10-16T04:53:12;13.30;85.70
46816;DHT22;32787;53.316;8.670;2022-10-16T04:55:38;13.40;85.60
46816;DHT22;32787;53.316;8.670;2022-10-16T04:58:04;13.40;85.40
46816;DHT22;32787;53.316;8.670;2022-10-16T05:00:30;13.30;85.50
46816;DHT22;32787;53.316;8.670;2022-10-16T05:02:55;13.30;85.90
46816;DHT22;32787;53.316;8.670;2022-10-16T05:05:22;13.40;85.70
46816;DHT22;32787;53.316;8.670;2022-10-16T05:07:48;13.30;86.00
46816;DHT22;32787;53.316;8.670;2022-10-16T05:10:15;13.30;86.10
46816;DHT22;32787;53.316;8.670;2022-10-16T05:12:40;13.30;86.10
46816;DHT22;32787;53.316;8.670;2022-10-16T05:15:07;13.30;86.10
46816;DHT22;32787;53.316;8.670;2022-10-16T05:17:32;13.40;85.60
46816;DHT22;32787;53.316;8.670;2022-10-16T05:19:58;13.20;86.10
46816;DHT22;32787;53.316;8.670;2022-10-16T05:22:23;13.30;86.40
46816;DHT22;32787;53.316;8.670;2022-10-16T05:24:49;13.10;86.80
46816;DHT22;32787;53.316;8.670;2022-10-16T05:27:15;13.00;87.00
46816;DHT22;32787;53.316;8.670;2022-10-16T05:29:48;13.10;86.80
46816;DHT22;32787;53.316;8.670;2022-10-16T05:32:15;13.30;86.20
46816;DHT22;32787;53.316;8.670;2022-10-16T05:34:40;13.30;86.10
46816;DHT22;32787;53.316;8.670;2022-10-16T05:37:06;13.40;85.70
46816;DHT22;32787;53.316;8.670;2022-10-16T05:39:32;13.30;86.50
46816;DHT22;32787;53.316;8.670;2022-10-16T05:41:57;13.40;86.40
46816;DHT22;32787;53.316;8.670;2022-10-16T05:44:23;13.50;85.90
46816;DHT22;32787;53.316;8.670;2022-10-16T05:46:48;13.50;86.00
46816;DHT22;32787;53.316;8.670;2022-10-16T05:49:14;13.40;85.90
46816;DHT22;32787;53.316;8.670;2022-10-16T05:51:40;13.50;85.90
46816;DHT22;32787;53.316;8.670;2022-10-16T05:54:06;13.30;86.50
46816;DHT22;32787;53.316;8.670;2022-10-16T05:56:32;13.30;86.60
46816;DHT22;32787;53.316;8.670;2022-10-16T05:58:57;13.30;86.80
46816;DHT22;32787;53.316;8.670;2022-10-16T06:01:23;13.30;86.70
46816;DHT22;32787;53.316;8.670;2022-10-16T06:03:50;13.20;87.20
46816;DHT22;32787;53.316;8.670;2022-10-16T06:06:19;13.50;86.20
46816;DHT22;32787;53.316;8.670;2022-10-16T06:08:46;13.40;86.80
46816;DHT22;32787;53.316;8.670;2022-10-16T06:11:15;13.40;86.70
46816;DHT22;32787;53.316;8.670;2022-10-16T06:13:41;13.30;87.20
46816;DHT22;32787;53.316;8.670;2022-10-16T06:16:09;13.30;87.00
46816;DHT22;32787;53.316;8.670;2022-10-16T06:18:35;13.30;87.20
46816;DHT22;32787;53.316;8.670;2022-10-16T06:21:24;13.30;87.20
46816;DHT22;32787;53.316;8.670;2022-10-16T06:23:50;13.40;86.60
46816;DHT22;32787;53.316;8.670;2022-10-16T06:26:19;13.50;86.30
46816;DHT22;32787;53.316;8.670;2022-10-16T06:28:45;13.40;86.90
46816;DHT22;32787;53.316;8.670;2022-10-16T06:31:12;13.30;87.20
46816;DHT22;32787;53.316;8.670;2022-10-16T06:33:38;13.40;86.90
46816;DHT22;32787;53.316;8.670;2022-10-16T06:36:09;13.40;87.30
46816;DHT22;32787;53.316;8.670;2022-10-16T06:38:36;13.40;87.10
46816;DHT22;32787;53.316;8.670;2022-10-16T06:41:02;13.50;86.90
46816;DHT22;32787;53.316;8.670;2022-10-16T06:43:31;13.30;87.40
46816;DHT22;32787;53.316;8.670;2022-10-16T06:45:58;13.50;87.10
46816;DHT22;32787;53.316;8.670;2022-10-16T06:48:25;13.60;86.60
46816;DHT22;32787;53.316;8.670;2022-10-16T06:51:00;13.60;86.90
46816;DHT22;32787;53.316;8.670;2022-10-16T06:53:29;13.50;87.00
46816;DHT22;32787;53.316;8.670;2022-10-16T06:55:55;13.70;86.70
46816;DHT22;32787;53.316;8.670;2022-10-16T06:58:22;13.80;86.50
46816;DHT22;32787;53.316;8.670;2022-10-16T07:00:47;13.80;86.20
46816;DHT22;32787;53.316;8.670;2022-10-16T07:03:13;13.80;86.10
46816;DHT22;32787;53.316;8.670;2022-10-16T07:05:40;14.00;86.10
46816;DHT22;32787;53.316;8.670;2022-10-16T07:08:06;13.90;86.20
46816;DHT22;32787;53.316;8.670;2022-10-16T07:10:32;13.90;86.30
46816;DHT22;32787;53.316;8.670;2022-10-16T07:12:58;14.10;85.80
46816;DHT22;32787;53.316;8.670;2022-10-16T07:15:25;14.20;85.50
46816;DHT22;32787;53.316;8.670;2022-10-16T07:17:51;14.20;85.40
46816;DHT22;32787;53.316;8.670;2022-10-16T07:20:17;14.40;85.00
46816;DHT22;32787;53.316;8.670;2022-10-16T07:22:42;14.80;84.20
46816;DHT22;32787;53.316;8.670;2022-10-16T07:25:08;15.10;83.00
46816;DHT22;32787;53.316;8.670;2022-10-16T07:27:34;15.00;82.90
46816;DHT22;32787;53.316;8.670;2022-10-16T07:30:00;14.80;83.50
46816;DHT22;32787;53.316;8.670;2022-10-16T07:32:25;14.70;83.90
46816;DHT22;32787;53.316;8.670;2022-10-16T07:34:52;14.40;84.70
46816;DHT22;32787;53.316;8.670;2022-10-16T07:37:18;14.50;84.60
46816;DHT22;32787;53.316;8.670;2022-10-16T07:39:43;14.30;85.00
46816;DHT22;32787;53.316;8.670;2022-10-16T07:42:09;14.30;85.30
46816;DHT22;32787;53.316;8.670;2022-10-16T07:44:35;14.30;85.10
46816;DHT22;32787;53.316;8.670;2022-10-16T07:47:01;14.30;84.80
46816;DHT22;32787;53.316;8.670;2022-10-16T07:49:27;14.30;85.10
46816;DHT22;32787;53.316;8.670;2022-10-16T07:51:53;14.40;84.90
46816;DHT22;32787;53.316;8.670;2022-10-16T07:54:18;14.30;85.60
46816;DHT22;32787;53.316;8.670;2022-10-16T07:56:44;14.40;85.40
46816;DHT22;32787;53.316;8.670;2022-10-16T07:59:09;14.50;85.40
46816;DHT22;32787;53.316;8.670;2022-10-16T08:01:35;14.40;85.20
46816;DHT22;32787;53.316;8.670;2022-10-16T08:04:01;14.30;85.90
46816;DHT22;32787;53.316;8.670;2022-10-16T08:06:26;14.40;85.10
46816;DHT22;32787;53.316;8.670;2022-10-16T08:08:52;14.40;85.00
46816;DHT22;32787;53.316;8.670;2022-10-16T08:11:18;14.50;84.70
46816;DHT22;32787;53.316;8.670;2022-10-16T08:13:43;14.50;85.10
46816;DHT22;32787;53.316;8.670;2022-10-16T08:16:09;14.40;85.10
46816;DHT22;32787;53.316;8.670;2022-10-16T08:18:39;14.40;84.90
46816;DHT22;32787;53.316;8.670;2022-10-16T08:21:05;14.40;85.40
46816;DHT22;32787;53.316;8.670;2022-10-16T08:23:32;14.50;84.60
46816;DHT22;32787;53.316;8.670;2022-10-16T08:26:04;14.50;84.40
46816;DHT22;32787;53.316;8.670;2022-10-16T08:28:30;14.50;84.60
46816;DHT22;32787;53.316;8.670;2022-10-16T08:30:56;14.50;84.70
46816;DHT22;32787;53.316;8.670;2022-10-16T08:33:22;14.40;85.20
46816;DHT22;32787;53.316;8.670;2022-10-16T08:35:52;14.60;84.70
46816;DHT22;32787;53.316;8.670;2022-10-16T08:38:19;14.60;84.80
46816;DHT22;32787;53.316;8.670;2022-10-16T08:40:45;14.60;84.60
46816;DHT22;32787;53.316;8.670;2022-10-16T08:48:57;15.10;83.30
46816;DHT22;32787;53.316;8.670;2022-10-16T08:51:27;15.20;83.20
46816;DHT22;32787;53.316;8.670;2022-10-16T08:54:05;15.30;83.00
46816;DHT22;32787;53.316;8.670;2022-10-16T08:56:31;15.50;82.50
46816;DHT22;32787;53.316;8.670;2022-10-16T08:58:59;15.60;82.20
46816;DHT22;32787;53.316;8.670;2022-10-16T09:01:37;15.70;81.90
46816;DHT22;32787;53.316;8.670;2022-10-16T09:06:50;15.80;81.40
46816;DHT22;32787;53.316;8.670;2022-10-16T09:09:39;15.70;81.40
46816;DHT22;32787;53.316;8.670;2022-10-16T09:20:38;15.80;80.80
46816;DHT22;32787;53.316;8.670;2022-10-16T09:25:40;15.90;80.30
46816;DHT22;32787;53.316;8.670;2022-10-16T09:28:08;15.80;80.80
46816;DHT22;32787;53.316;8.670;2022-10-16T09:30:34;15.70;81.20
46816;DHT22;32787;53.316;8.670;2022-10-16T09:33:00;15.90;80.00
46816;DHT22;32787;53.316;8.670;2022-10-16T09:35:49;16.00;79.70
46816;DHT22;32787;53.316;8.670;2022-10-16T09:38:32;16.10;79.90
46816;DHT22;32787;53.316;8.670;2022-10-16T09:43:42;16.40;78.70
46816;DHT22;32787;53.316;8.670;2022-10-16T09:46:32;16.60;79.00
46816;DHT22;32787;53.316;8.670;2022-10-16T09:49:03;16.60;77.80
46816;DHT22;32787;53.316;8.670;2022-10-16T09:51:34;16.70;77.80
46816;DHT22;32787;53.316;8.670;2022-10-16T09:56:36;16.70;77.90
46816;DHT22;32787;53.316;8.670;2022-10-16T09:59:22;16.70;78.60
46816;DHT22;32787;53.316;8.670;2022-10-16T10:01:54;16.70;76.90
46816;DHT22;32787;53.316;8.670;2022-10-16T10:04:23;16.60;77.50
46816;DHT22;32787;53.316;8.670;2022-10-16T10:06:51;16.70;78.30
46816;DHT22;32787;53.316;8.670;2022-10-16T10:09:37;16.60;77.90
46816;DHT22;32787;53.316;8.670;2022-10-16T10:12:05;16.70;78.60
46816;DHT22;32787;53.316;8.670;2022-10-16T10:14:39;16.50;77.70
46816;DHT22;32787;53.316;8.670;2022-10-16T10:17:14;16.60;77.90
46816;DHT22;32787;53.316;8.670;2022-10-16T10:25:38;16.50;77.30
46816;DHT22;32787;53.316;8.670;2022-10-16T10:31:25;16.80;76.00
46816;DHT22;32787;53.316;8.670;2022-10-16T10:36:52;16.60;76.10
46816;DHT22;32787;53.316;8.670;2022-10-16T10:39:27;16.60;76.70
46816;DHT22;32787;53.316;8.670;2022-10-16T10:42:06;16.60;77.40
46816;DHT22;32787;53.316;8.670;2022-10-16T10:47:39;16.70;77.20
46816;DHT22;32787;53.316;8.670;2022-10-16T10:50:28;16.90;76.30
46816;DHT22;32787;53.316;8.670;2022-10-16T10:52:58;17.00;75.60
46816;DHT22;32787;53.316;8.670;2022-10-16T10:58:39;16.80;75.90
46816;DHT22;32787;53.316;8.670;2022-10-16T11:01:16;16.90;76.40
46816;DHT22;32787;53.316;8.670;2022-10-16T11:06:40;17.20;75.40
46816;DHT22;32787;53.316;8.670;2022-10-16T11:09:58;17.40;73.50
46816;DHT22;32787;53.316;8.670;2022-10-16T11:12:31;17.50;74.30
46816;DHT22;32787;53.316;8.670;2022-10-16T11:15:03;17.60;73.70
46816;DHT22;32787;53.316;8.670;2022-10-16T11:17:42;17.50;73.30
46816;DHT22;32787;53.316;8.670;2022-10-16T11:20:23;17.50;73.40
46816;DHT22;32787;53.316;8.670;2022-10-16T11:23:09;17.50;72.30
46816;DHT22;32787;53.316;8.670;2022-10-16T11:25:39;17.50;71.90
46816;DHT22;32787;53.316;8.670;2022-10-16T11:28:25;17.50;72.90
46816;DHT22;32787;53.316;8.670;2022-10-16T11:31:10;17.60;71.90
46816;DHT22;32787;53.316;8.670;2022-10-16T11:34:41;17.60;71.90
46816;DHT22;32787;53.316;8.670;2022-10-16T11:36:40;17.80;70.50
46816;DHT22;32787;53.316;8.670;2022-10-16T11:39:20;17.80;69.80
46816;DHT22;32787;53.316;8.670;2022-10-16T11:41:50;17.80;71.10
46816;DHT22;32787;53.316;8.670;2022-10-16T11:52:48;18.10;69.20
46816;DHT22;32787;53.316;8.670;2022-10-16T11:55:52;18.00;69.70
46816;DHT22;32787;53.316;8.670;2022-10-16T12:00:53;17.90;71.00
46816;DHT22;32787;53.316;8.670;2022-10-16T12:03:33;18.00;69.70
46816;DHT22;32787;53.316;8.670;2022-10-16T12:08:38;17.80;69.30
46816;DHT22;32787;53.316;8.670;2022-10-16T12:11:20;17.60;70.00
46816;DHT22;32787;53.316;8.670;2022-10-16T12:13:46;17.40;70.60
46816;DHT22;32787;53.316;8.670;2022-10-16T12:18:44;17.60;68.80
46816;DHT22;32787;53.316;8.670;2022-10-16T12:21:11;17.60;70.10
46816;DHT22;32787;53.316;8.670;2022-10-16T12:23:50;17.70;70.80
46816;DHT22;32787;53.316;8.670;2022-10-16T12:26:39;17.70;69.30
46816;DHT22;32787;53.316;8.670;2022-10-16T12:29:32;18.10;67.40
46816;DHT22;32787;53.316;8.670;2022-10-16T12:31:58;18.30;66.50
46816;DHT22;32787;53.316;8.670;2022-10-16T12:37:20;18.30;65.50
46816;DHT22;32787;53.316;8.670;2022-10-16T12:39:47;18.50;64.80
46816;DHT22;32787;53.316;8.670;2022-10-16T12:44:47;18.70;65.10
46816;DHT22;32787;53.316;8.670;2022-10-16T12:49:56;18.80;65.20
46816;DHT22;32787;53.316;8.670;2022-10-16T12:52:27;18.80;63.40
46816;DHT22;32787;53.316;8.670;2022-10-16T12:54:57;18.80;61.70
46816;DHT22;32787;53.316;8.670;2022-10-16T12:57:44;18.70;62.60
46816;DHT22;32787;53.316;8.670;2022-10-16T13:00:24;18.50;63.30
46816;DHT22;32787;53.316;8.670;2022-10-16T13:08:32;18.50;63.20
46816;DHT22;32787;53.316;8.670;2022-10-16T13:13:49;18.20;62.30
46816;DHT22;32787;53.316;8.670;2022-10-16T13:19:19;18.20;63.30
46816;DHT22;32787;53.316;8.670;2022-10-16T13:29:38;18.10;65.30
46816;DHT22;32787;53.316;8.670;2022-10-16T13:32:10;18.20;64.30
46816;DHT22;32787;53.316;8.670;2022-10-16T13:34:47;18.30;63.90
46816;DHT22;32787;53.316;8.670;2022-10-16T13:37:25;18.30;64.30
46816;DHT22;32787;53.316;8.670;2022-10-16T13:39:50;18.20;62.20
46816;DHT22;32787;53.316;8.670;2022-10-16T13:42:26;18.10;61.90
46816;DHT22;32787;53.316;8.670;2022-10-16T13:44:54;18.00;61.70
46816;DHT22;32787;53.316;8.670;2022-10-16T13:47:26;18.00;61.70
46816;DHT22;32787;53.316;8.670;2022-10-16T13:50:14;17.80;63.10
46816;DHT22;32787;53.316;8.670;2022-10-16T13:52:40;17.80;61.80
46816;DHT22;32787;53.316;8.670;2022-10-16T13:55:15;17.60;64.10
46816;DHT22;32787;53.316;8.670;2022-10-16T13:57:42;17.80;64.60
46816;DHT22;32787;53.316;8.670;2022-10-16T14:00:19;17.80;62.90
46816;DHT22;32787;53.316;8.670;2022-10-16T14:02:45;17.80;64.80
46816;DHT22;32787;53.316;8.670;2022-10-16T14:05:15;17.70;62.90
46816;DHT22;32787;53.316;8.670;2022-10-16T14:07:42;17.80;63.50
46816;DHT22;32787;53.316;8.670;2022-10-16T14:10:20;17.80;64.60
46816;DHT22;32787;53.316;8.670;2022-10-16T14:12:55;17.80;65.30
46816;DHT22;32787;53.316;8.670;2022-10-16T14:15:21;17.50;64.00
46816;DHT22;32787;53.316;8.670;2022-10-16T14:17:50;17.60;63.40
46816;DHT22;32787;53.316;8.670;2022-10-16T14:20:28;17.40;63.90
46816;DHT22;32787;53.316;8.670;2022-10-16T14:23:28;17.40;66.40
46816;DHT22;32787;53.316;8.670;2022-10-16T14:25:53;17.30;67.20
46816;DHT22;32787;53.316;8.670;2022-10-16T14:28:22;17.30;67.10
46816;DHT22;32787;53.316;8.670;2022-10-16T14:30:56;17.30;66.00
46816;DHT22;32787;53.316;8.670;2022-10-16T14:36:03;17.40;65.00
46816;DHT22;32787;53.316;8.670;2022-10-16T14:38:30;17.50;64.40
46816;DHT22;32787;53.316;8.670;2022-10-16T14:40:58;17.40;64.00
46816;DHT22;32787;53.316;8.670;2022-10-16T14:43:36;17.40;65.20
46816;DHT22;32787;53.316;8.670;2022-10-16T14:46:11;17.40;64.60
46816;DHT22;32787;53.316;8.670;2022-10-16T14:48:47;17.30;67.30
46816;DHT22;32787;53.316;8.670;2022-10-16T14:51:15;17.40;64.40
46816;DHT22;32787;53.316;8.670;2022-10-16T14:53:41;17.40;65.50
46816;DHT22;32787;53.316;8.670;2022-10-16T14:56:08;17.40;65.80
46816;DHT22;32787;53.316;8.670;2022-10-16T14:58:35;17.30;66.30
46816;DHT22;32787;53.316;8.670;2022-10-16T15:01:00;17.10;67.30
46816;DHT22;32787;53.316;8.670;2022-10-16T15:03:26;17.10;67.60
46816;DHT22;32787;53.316;8.670;2022-10-16T15:05:52;16.90;68.20
46816;DHT22;32787;53.316;8.670;2022-10-16T15:08:17;16.80;66.90
46816;DHT22;32787;53.316;8.670;2022-10-16T15:10:43;16.80;68.30
46816;DHT22;32787;53.316;8.670;2022-10-16T15:13:13;16.90;68.80
46816;DHT22;32787;53.316;8.670;2022-10-16T15:15:45;16.70;70.30
46816;DHT22;32787;53.316;8.670;2022-10-16T15:18:12;16.80;69.30
46816;DHT22;32787;53.316;8.670;2022-10-16T15:20:40;16.70;69.40
46816;DHT22;32787;53.316;8.670;2022-10-16T15:23:15;16.60;68.20
46816;DHT22;32787;53.316;8.670;2022-10-16T15:25:54;16.50;69.00
46816;DHT22;32787;53.316;8.670;2022-10-16T15:28:20;16.40;68.50
46816;DHT22;32787;53.316;8.670;2022-10-16T15:30:49;16.30;70.10
46816;DHT22;32787;53.316;8.670;2022-10-16T15:33:17;16.10;70.10
46816;DHT22;32787;53.316;8.670;2022-10-16T15:35:46;16.40;69.40
46816;DHT22;32787;53.316;8.670;2022-10-16T15:38:13;16.20;69.80
46816;DHT22;32787;53.316;8.670;2022-10-16T15:40:39;16.10;70.20
46816;DHT22;32787;53.316;8.670;2022-10-16T15:43:05;15.90;71.20
46816;DHT22;32787;53.316;8.670;2022-10-16T15:45:31;15.90;71.70
46816;DHT22;32787;53.316;8.670;2022-10-16T15:47:57;15.70;73.20
46816;DHT22;32787;53.316;8.670;2022-10-16T15:50:22;15.50;74.40
46816;DHT22;32787;53.316;8.670;2022-10-16T15:52:49;15.40;75.00
46816;DHT22;32787;53.316;8.670;2022-10-16T15:55:15;15.30;76.00
46816;DHT22;32787;53.316;8.670;2022-10-16T15:57:42;15.20;76.20
46816;DHT22;32787;53.316;8.670;2022-10-16T16:00:17;15.10;77.20
46816;DHT22;32787;53.316;8.670;2022-10-16T16:02:44;15.00;78.20
46816;DHT22;32787;53.316;8.670;2022-10-16T16:05:14;14.90;78.40
46816;DHT22;32787;53.316;8.670;2022-10-16T16:07:40;14.80;78.20
46816;DHT22;32787;53.316;8.670;2022-10-16T16:10:08;14.70;78.40
46816;DHT22;32787;53.316;8.670;2022-10-16T16:12:34;14.60;78.70
46816;DHT22;32787;53.316;8.670;2022-10-16T16:14:59;14.40;79.20
46816;DHT22;32787;53.316;8.670;2022-10-16T16:17:25;14.40;79.10
46816;DHT22;32787;53.316;8.670;2022-10-16T16:19:51;14.30;79.20
46816;DHT22;32787;53.316;8.670;2022-10-16T16:22:17;14.10;79.40
46816;DHT22;32787;53.316;8.670;2022-10-16T16:24:43;14.00;80.30
46816;DHT22;32787;53.316;8.670;2022-10-16T16:27:08;14.00;80.80
46816;DHT22;32787;53.316;8.670;2022-10-16T16:29:34;13.90;80.70
46816;DHT22;32787;53.316;8.670;2022-10-16T16:32:00;13.90;81.20
46816;DHT22;32787;53.316;8.670;2022-10-16T16:34:27;13.80;81.70
46816;DHT22;32787;53.316;8.670;2022-10-16T16:36:54;13.70;81.70
46816;DHT22;32787;53.316;8.670;2022-10-16T16:39:19;13.70;81.90
46816;DHT22;32787;53.316;8.670;2022-10-16T16:41:45;13.60;81.80
46816;DHT22;32787;53.316;8.670;2022-10-16T16:44:11;13.60;82.20
46816;DHT22;32787;53.316;8.670;2022-10-16T16:46:38;13.50;82.30
46816;DHT22;32787;53.316;8.670;2022-10-16T16:49:06;13.40;82.80
46816;DHT22;32787;53.316;8.670;2022-10-16T16:51:32;13.50;82.90
46816;DHT22;32787;53.316;8.670;2022-10-16T16:53:58;13.40;82.60
46816;DHT22;32787;53.316;8.670;2022-10-16T16:56:25;13.10;83.10
46816;DHT22;32787;53.316;8.670;2022-10-16T16:58:53;13.00;83.40
46816;DHT22;32787;53.316;8.670;2022-10-16T17:01:20;13.00;83.70
46816;DHT22;32787;53.316;8.670;2022-10-16T17:03:48;12.90;84.10
46816;DHT22;32787;53.316;8.670;2022-10-16T17:06:15;13.00;84.00
46816;DHT22;32787;53.316;8.670;2022-10-16T17:08:41;13.00;84.00
46816;DHT22;32787;53.316;8.670;2022-10-16T17:11:13;13.10;84.00
46816;DHT22;32787;53.316;8.670;2022-10-16T17:13:38;13.00;84.00
46816;DHT22;32787;53.316;8.670;2022-10-16T17:16:05;13.40;83.40
46816;DHT22;32787;53.316;8.670;2022-10-16T17:18:32;13.10;83.30
46816;DHT22;32787;53.316;8.670;2022-10-16T17:21:06;12.90;84.10
46816;DHT22;32787;53.316;8.670;2022-10-16T17:23:33;12.80;84.30
46816;DHT22;32787;53.316;8.670;2022-10-16T17:26:07;12.80;84.30
46816;DHT22;32787;53.316;8.670;2022-10-16T17:28:33;12.60;84.40
46816;DHT22;32787;53.316;8.670;2022-10-16T17:31:14;12.40;84.80